Chatsworth, Canada
Current Conditions -  °F | °C
As of 6:00 AM on Monday 20 Oct 2014 (Local Time) from CYVV Reporting Station
Light Rain Light Rain  
Wind Chill: 39°   Ceiling: 2800
Heat Index: 45°   Visibility: 15mi
Dew Point: 41°   Wind: 10mph
Humidity: 87%   Direction: 160°SSE
Pressure: 29.82"   Gusts: NA
Location:  44.45°N, 80.88°W
Report Text: CYVV 201000Z 16009KT 15SM -RA OVC028 07/05 A2982 RMK SC8SLP103
Loading
Personal Weather Stations






























Interactive Weather Map
Tropical Storm Tracking
New forecast layout! Learn more

10-Day Weather Forecast

Advertisements
Track Severe Weather on mobile